createdAt,value
2023-03-11T00:00:47.576Z,13.90
2023-03-11T00:03:18.484Z,14.70
2023-03-11T00:05:47.108Z,22.60
2023-03-11T00:08:19.909Z,16.10
2023-03-11T00:10:51.270Z,19.40
2023-03-11T00:13:18.918Z,18.10
2023-03-11T00:15:50.667Z,15.30
2023-03-11T00:18:18.859Z,14.20
2023-03-11T00:20:47.678Z,16.30
2023-03-11T00:23:16.124Z,16.20
2023-03-11T00:25:45.611Z,15.20
2023-03-11T00:28:14.890Z,13.40
2023-03-11T00:30:44.690Z,11.90
2023-03-11T00:33:16.596Z,12.80
2023-03-11T00:35:44.959Z,12.40
2023-03-11T00:38:18.225Z,13.70
2023-03-11T00:40:47.648Z,13.30
2023-03-11T00:43:16.239Z,11.70
2023-03-11T00:45:43.698Z,12.00
2023-03-11T00:48:12.609Z,13.00
2023-03-11T00:50:40.983Z,11.80
2023-03-11T00:53:08.416Z,12.30
2023-03-11T00:55:36.469Z,12.30
2023-03-11T00:58:06.620Z,11.20
2023-03-11T01:00:34.994Z,11.60
2023-03-11T01:03:02.756Z,11.50
2023-03-11T01:05:32.805Z,12.20
2023-03-11T01:08:01.221Z,9.20
2023-03-11T01:10:30.689Z,9.50
2023-03-11T01:12:58.515Z,10.50
2023-03-11T01:15:33.234Z,9.80
2023-03-11T01:18:01.901Z,7.30
2023-03-11T01:20:29.503Z,6.60
2023-03-11T01:22:57.245Z,10.10
2023-03-11T01:25:25.370Z,7.40
2023-03-11T01:27:52.873Z,6.70
2023-03-11T01:30:25.413Z,9.10
2023-03-11T01:32:54.737Z,6.20
2023-03-11T01:35:24.354Z,5.70
2023-03-11T01:37:52.610Z,6.80
2023-03-11T01:40:46.135Z,9.00
2023-03-11T01:43:43.812Z,7.50
2023-03-11T01:46:25.685Z,6.70
2023-03-11T01:48:59.270Z,6.80
2023-03-11T01:51:38.605Z,6.60
2023-03-11T01:54:13.712Z,12.00
2023-03-11T01:56:43.030Z,7.60
2023-03-11T01:59:15.386Z,8.00
2023-03-11T02:01:53.909Z,6.60
2023-03-11T02:04:21.856Z,9.20
2023-03-11T02:06:50.674Z,6.60
2023-03-11T02:09:18.755Z,6.40
2023-03-11T02:11:46.140Z,8.70
2023-03-11T02:14:14.097Z,6.80
2023-03-11T02:16:41.536Z,6.60
2023-03-11T02:19:30.883Z,6.00
2023-03-11T02:21:58.726Z,5.90
2023-03-11T02:24:31.607Z,8.20
2023-03-11T02:27:01.789Z,7.30
2023-03-11T02:29:29.954Z,6.70
2023-03-11T02:32:00.049Z,6.20
2023-03-11T02:34:37.189Z,9.30
2023-03-11T02:37:08.658Z,6.50
2023-03-11T02:42:12.537Z,6.00
2023-03-11T02:44:44.618Z,6.50
2023-03-11T02:47:12.069Z,6.60
2023-03-11T02:49:40.088Z,8.00
2023-03-11T02:52:07.686Z,6.50
2023-03-11T02:54:35.192Z,6.90
2023-03-11T02:57:02.556Z,9.00
2023-03-11T02:59:30.015Z,6.90
2023-03-11T03:01:57.453Z,7.60
2023-03-11T03:04:24.825Z,8.10
2023-03-11T03:06:52.247Z,7.10
2023-03-11T03:09:19.706Z,6.20
2023-03-11T03:11:47.081Z,5.70
2023-03-11T03:14:14.504Z,7.00
2023-03-11T03:16:42.254Z,6.40
2023-03-11T03:19:09.773Z,6.80
2023-03-11T03:21:37.173Z,6.50
2023-03-11T03:24:04.854Z,6.10
2023-03-11T03:26:32.204Z,6.30
2023-03-11T03:28:59.672Z,5.70
2023-03-11T03:31:27.192Z,7.40
2023-03-11T03:33:54.610Z,8.00
2023-03-11T03:36:22.010Z,5.80
2023-03-11T03:38:53.254Z,7.40
2023-03-11T03:41:20.703Z,9.00
2023-03-11T03:43:48.161Z,7.80
2023-03-11T03:46:15.774Z,7.20
2023-03-11T03:48:43.270Z,7.80
2023-03-11T03:51:12.672Z,8.10
2023-03-11T03:53:41.575Z,8.70
2023-03-11T03:56:12.205Z,6.90
2023-03-11T03:58:39.619Z,8.30
2023-03-11T04:01:08.826Z,6.80
2023-03-11T04:03:36.836Z,7.00
2023-03-11T04:06:15.581Z,7.70
2023-03-11T04:08:43.474Z,6.40
2023-03-11T04:11:11.565Z,7.30
2023-03-11T04:13:39.353Z,7.80
2023-03-11T04:16:07.935Z,7.80
2023-03-11T04:18:35.319Z,7.80
2023-03-11T04:21:06.799Z,6.20
2023-03-11T04:26:02.180Z,6.70
2023-03-11T04:28:29.550Z,7.70
2023-03-11T04:30:58.029Z,7.80
2023-03-11T04:33:25.506Z,7.80
2023-03-11T04:35:53.077Z,8.60
2023-03-11T04:38:20.544Z,7.60
2023-03-11T04:40:48.134Z,8.90
2023-03-11T04:43:15.673Z,9.20
2023-03-11T04:45:43.320Z,8.80
2023-03-11T04:48:10.764Z,9.20
2023-03-11T04:50:38.177Z,9.10
2023-03-11T04:53:05.532Z,10.40
2023-03-11T04:55:33.359Z,9.50
2023-03-11T04:58:00.783Z,8.80
2023-03-11T05:00:28.219Z,7.30
2023-03-11T05:02:55.718Z,10.20
2023-03-11T05:05:23.097Z,10.40
2023-03-11T05:07:50.609Z,8.80
2023-03-11T05:10:22.597Z,8.70
2023-03-11T05:12:51.366Z,9.30
2023-03-11T05:15:19.773Z,10.00
2023-03-11T05:17:47.618Z,8.90
2023-03-11T05:20:16.621Z,8.70
2023-03-11T05:22:44.040Z,7.40
2023-03-11T05:25:11.488Z,8.50
2023-03-11T05:27:38.868Z,9.60
2023-03-11T05:30:08.288Z,8.20
2023-03-11T05:32:35.888Z,14.60
2023-03-11T05:35:03.542Z,7.10
2023-03-11T05:37:32.344Z,8.20
2023-03-11T05:39:59.810Z,7.30
2023-03-11T05:42:27.308Z,10.20
2023-03-11T05:44:54.762Z,9.20
2023-03-11T05:47:22.117Z,8.00
2023-03-11T05:49:49.925Z,8.60
2023-03-11T05:52:17.578Z,9.20
2023-03-11T05:54:44.969Z,9.80
2023-03-11T05:57:12.328Z,9.80
2023-03-11T05:59:39.688Z,8.90
2023-03-11T06:02:07.084Z,7.90
2023-03-11T06:04:34.730Z,9.10
2023-03-11T06:07:02.348Z,7.80
2023-03-11T06:09:29.663Z,7.70
2023-03-11T06:11:57.051Z,8.70
2023-03-11T06:14:24.542Z,8.70
2023-03-11T06:16:51.905Z,8.60
2023-03-11T06:19:20.465Z,8.60
2023-03-11T06:21:47.814Z,8.10
2023-03-11T06:24:15.181Z,9.50
2023-03-11T06:26:44.027Z,11.50
2023-03-11T06:29:14.475Z,12.00
2023-03-11T06:31:42.373Z,10.60
2023-03-11T06:34:11.770Z,6.60
2023-03-11T06:36:39.266Z,8.60
2023-03-11T06:39:06.979Z,7.20
2023-03-11T06:41:34.927Z,6.80
2023-03-11T06:44:02.879Z,8.10
2023-03-11T06:46:30.676Z,7.50
2023-03-11T06:48:58.574Z,7.20
2023-03-11T06:51:26.060Z,7.80
2023-03-11T06:53:54.784Z,7.70
2023-03-11T06:56:23.942Z,8.50
2023-03-11T06:58:51.461Z,7.00
2023-03-11T07:01:25.168Z,7.50
2023-03-11T07:03:52.866Z,8.30
2023-03-11T07:06:26.347Z,7.90
2023-03-11T07:08:54.046Z,7.00
2023-03-11T07:11:25.533Z,8.20
2023-03-11T07:16:26.338Z,7.60
2023-03-11T07:19:01.029Z,8.90
2023-03-11T07:21:30.314Z,8.90
2023-03-11T07:24:00.822Z,7.80
2023-03-11T07:26:30.031Z,9.30
2023-03-11T07:28:58.384Z,8.60
2023-03-11T07:31:30.177Z,10.70
2023-03-11T07:34:00.267Z,9.10
2023-03-11T07:36:29.149Z,7.20
2023-03-11T07:38:59.769Z,8.40
2023-03-11T07:41:27.678Z,7.00
2023-03-11T07:44:01.241Z,7.30
2023-03-11T07:46:30.170Z,9.70
2023-03-11T07:48:57.659Z,8.20
2023-03-11T07:51:28.546Z,6.30
2023-03-11T07:53:58.465Z,6.00
2023-03-11T07:56:30.731Z,6.50
2023-03-11T07:59:00.301Z,9.50
2023-03-11T08:01:36.507Z,7.70
2023-03-11T08:04:13.987Z,9.10
2023-03-11T08:06:43.836Z,8.10
2023-03-11T08:09:12.070Z,6.20
2023-03-11T08:11:39.927Z,8.50
2023-03-11T08:14:07.933Z,6.80
2023-03-11T08:16:35.306Z,8.90
2023-03-11T08:19:03.034Z,8.40
2023-03-11T08:21:32.391Z,4.80
2023-03-11T08:24:02.718Z,5.90
2023-03-11T08:26:31.547Z,6.30
2023-03-11T08:28:59.780Z,7.30
2023-03-11T08:31:31.267Z,6.70
2023-03-11T08:34:05.278Z,9.90
2023-03-11T08:36:33.366Z,9.00
2023-03-11T08:39:01.227Z,7.30
2023-03-11T08:41:29.143Z,10.40
2023-03-11T08:43:56.965Z,9.10
2023-03-11T08:46:35.008Z,7.70
2023-03-11T08:49:04.293Z,7.50
2023-03-11T08:51:34.187Z,6.00
2023-03-11T08:54:02.513Z,6.00
2023-03-11T08:56:30.315Z,7.70
2023-03-11T08:58:57.889Z,6.40
2023-03-11T09:01:25.737Z,5.20
2023-03-11T09:03:53.188Z,5.60
2023-03-11T09:06:20.752Z,6.10
2023-03-11T09:08:49.264Z,8.10
2023-03-11T09:11:18.577Z,7.80
2023-03-11T09:13:45.984Z,6.60
2023-03-11T09:16:23.043Z,8.40
2023-03-11T09:18:50.775Z,5.50
2023-03-11T09:21:18.509Z,6.30
2023-03-11T09:23:46.063Z,5.40
2023-03-11T09:26:14.061Z,5.90
2023-03-11T09:28:42.297Z,5.20
2023-03-11T09:31:09.976Z,5.70
2023-03-11T09:33:39.904Z,5.50
2023-03-11T09:36:08.837Z,5.90
2023-03-11T09:38:36.323Z,6.30
2023-03-11T09:41:21.070Z,5.80
2023-03-11T09:44:10.273Z,6.50
2023-03-11T09:47:04.841Z,5.80
2023-03-11T09:49:47.549Z,5.90
2023-03-11T09:52:19.700Z,6.00
2023-03-11T09:54:52.821Z,5.60
2023-03-11T09:57:26.819Z,6.10
2023-03-11T09:59:55.346Z,6.10
2023-03-11T10:02:28.296Z,5.90
2023-03-11T10:05:15.831Z,5.10
2023-03-11T10:07:54.105Z,6.50
2023-03-11T10:10:22.315Z,6.00
2023-03-11T10:13:02.603Z,6.10
2023-03-11T10:15:49.111Z,7.70
2023-03-11T10:18:50.117Z,6.20
2023-03-11T10:21:54.129Z,6.90
2023-03-11T10:24:47.330Z,6.30
2023-03-11T10:27:24.431Z,6.80
2023-03-11T10:30:20.722Z,5.40
2023-03-11T10:33:20.252Z,5.20
2023-03-11T10:35:54.151Z,5.60
2023-03-11T10:38:23.851Z,4.90
2023-03-11T10:40:55.723Z,4.60
2023-03-11T10:43:35.274Z,5.30
2023-03-11T10:46:13.634Z,6.30
2023-03-11T10:48:41.048Z,6.60
2023-03-11T10:51:22.447Z,8.50
2023-03-11T10:53:54.261Z,6.70
2023-03-11T10:56:40.456Z,6.50
2023-03-11T10:59:30.747Z,6.30
2023-03-11T11:02:20.139Z,6.60
2023-03-11T11:04:48.923Z,7.40
2023-03-11T11:07:37.389Z,10.60
2023-03-11T11:10:27.489Z,7.10
2023-03-11T11:13:17.786Z,6.80
2023-03-11T11:16:06.306Z,5.10
2023-03-11T11:19:20.426Z,6.20
2023-03-11T11:21:52.269Z,6.70
2023-03-11T11:24:28.718Z,4.90
2023-03-11T11:27:18.602Z,4.80
2023-03-11T11:29:48.601Z,7.60
2023-03-11T11:32:19.374Z,6.60
2023-03-11T11:35:06.969Z,4.80
2023-03-11T11:37:38.798Z,6.70
2023-03-11T11:40:15.720Z,7.10
2023-03-11T11:42:50.935Z,5.70
2023-03-11T11:45:30.363Z,5.70
2023-03-11T11:48:45.299Z,6.60
2023-03-11T11:51:24.902Z,4.60
2023-03-11T11:53:55.301Z,4.80
2023-03-11T11:56:25.958Z,4.30
2023-03-11T11:58:55.484Z,5.10
2023-03-11T12:01:36.323Z,6.80
2023-03-11T12:04:42.580Z,6.00
2023-03-11T12:07:37.624Z,5.50
2023-03-11T12:10:32.899Z,9.30
2023-03-11T12:13:43.902Z,6.40
2023-03-11T12:16:40.796Z,8.00
2023-03-11T12:19:29.419Z,5.70
2023-03-11T12:22:49.064Z,4.30
2023-03-11T12:25:37.495Z,6.30
2023-03-11T12:28:25.023Z,4.80
2023-03-11T12:31:04.120Z,4.20
2023-03-11T12:33:42.904Z,3.80
2023-03-11T12:36:37.580Z,4.90
2023-03-11T12:39:19.688Z,5.60
2023-03-11T12:41:47.201Z,6.90
2023-03-11T12:44:30.811Z,5.90
2023-03-11T12:46:58.190Z,4.70
2023-03-11T12:49:30.710Z,4.50
2023-03-11T12:52:08.840Z,5.20
2023-03-11T12:54:42.068Z,5.60
2023-03-11T12:57:35.849Z,4.60
2023-03-11T13:00:18.451Z,5.20
2023-03-11T13:03:19.573Z,6.80
2023-03-11T13:06:11.873Z,5.30
2023-03-11T13:09:14.567Z,6.10
2023-03-11T13:11:47.390Z,5.00
2023-03-11T13:14:14.955Z,4.40
2023-03-11T13:16:44.468Z,5.70
2023-03-11T13:19:27.159Z,4.50
2023-03-11T13:21:59.553Z,4.80
2023-03-11T13:24:27.051Z,3.30
2023-03-11T13:27:02.253Z,3.70
2023-03-11T13:30:04.039Z,5.00
2023-03-11T13:32:52.616Z,4.30
2023-03-11T13:35:54.748Z,6.00
2023-03-11T13:38:55.957Z,6.40
2023-03-11T13:41:31.240Z,5.50
2023-03-11T13:44:21.221Z,6.50
2023-03-11T13:46:53.546Z,5.50
2023-03-11T13:49:42.820Z,7.70
2023-03-11T13:52:17.425Z,6.90
2023-03-11T13:54:59.795Z,5.30
2023-03-11T13:57:37.311Z,5.50
2023-03-11T14:00:28.487Z,5.80
2023-03-11T14:03:02.897Z,6.60
2023-03-11T14:05:35.484Z,6.90
2023-03-11T14:08:23.492Z,4.90
2023-03-11T14:10:59.346Z,4.50
2023-03-11T14:13:33.507Z,5.10
2023-03-11T14:16:07.712Z,7.20
2023-03-11T14:18:41.758Z,6.30
2023-03-11T14:21:21.613Z,6.20
2023-03-11T14:23:51.972Z,4.40
2023-03-11T14:26:28.991Z,7.40
2023-03-11T14:29:02.654Z,5.90
2023-03-11T14:31:35.829Z,6.40
2023-03-11T14:34:25.961Z,4.10
2023-03-11T14:37:00.536Z,5.20
2023-03-11T14:39:32.207Z,6.10
2023-03-11T14:42:22.036Z,5.30
2023-03-11T14:45:12.555Z,4.80
2023-03-11T14:47:48.692Z,7.00
2023-03-11T14:50:24.244Z,6.40
2023-03-11T14:53:30.660Z,4.90
2023-03-11T14:56:05.997Z,4.90
2023-03-11T14:59:06.603Z,7.40
2023-03-11T15:01:43.218Z,5.10
2023-03-11T15:04:37.889Z,5.90
2023-03-11T15:07:06.067Z,5.90
2023-03-11T15:09:33.854Z,5.50
2023-03-11T15:12:04.722Z,6.90
2023-03-11T15:14:35.895Z,5.20
2023-03-11T15:17:42.620Z,6.70
2023-03-11T15:20:31.200Z,6.90
2023-03-11T15:23:02.479Z,5.90
2023-03-11T15:25:34.504Z,5.00
2023-03-11T15:28:21.634Z,6.30
2023-03-11T15:30:49.085Z,5.60
2023-03-11T15:33:33.824Z,7.00
2023-03-11T15:36:01.359Z,5.00
2023-03-11T15:38:28.862Z,6.30
2023-03-11T15:41:01.045Z,6.30
2023-03-11T15:43:34.473Z,7.40
2023-03-11T15:46:03.404Z,5.80
2023-03-11T15:48:31.418Z,5.30
2023-03-11T15:51:00.592Z,6.50
2023-03-11T15:53:30.231Z,5.20
2023-03-11T15:56:07.328Z,6.70
2023-03-11T15:58:37.750Z,6.30
2023-03-11T16:01:05.398Z,7.40
2023-03-11T16:03:32.860Z,5.00
2023-03-11T16:06:00.278Z,7.00
2023-03-11T16:08:27.665Z,6.40
2023-03-11T16:10:55.413Z,6.40
2023-03-11T16:13:22.766Z,6.70
2023-03-11T16:15:50.136Z,6.90
2023-03-11T16:18:17.555Z,6.40
2023-03-11T16:20:51.965Z,6.80
2023-03-11T16:23:25.974Z,6.80
2023-03-11T16:25:59.065Z,5.90
2023-03-11T16:28:26.894Z,4.60
2023-03-11T16:30:54.496Z,5.50
2023-03-11T16:33:22.215Z,6.60
2023-03-11T16:35:49.715Z,4.80
2023-03-11T16:38:19.523Z,5.40
2023-03-11T16:41:00.473Z,5.60
2023-03-11T16:43:30.239Z,5.60
2023-03-11T16:45:57.644Z,6.70
2023-03-11T16:48:25.301Z,5.90
2023-03-11T16:50:52.806Z,5.60
2023-03-11T16:53:20.519Z,6.90
2023-03-11T16:55:48.636Z,6.20
2023-03-11T16:58:16.266Z,5.40
2023-03-11T17:00:43.936Z,7.00
2023-03-11T17:03:16.617Z,5.40
2023-03-11T17:05:45.539Z,9.10
2023-03-11T17:08:13.405Z,8.50
2023-03-11T17:10:44.403Z,6.00
2023-03-11T17:13:13.836Z,6.90
2023-03-11T17:15:44.552Z,5.60
2023-03-11T17:18:12.573Z,6.30
2023-03-11T17:20:43.426Z,5.50
2023-03-11T17:23:12.292Z,5.40
2023-03-11T17:25:41.735Z,4.20
2023-03-11T17:28:09.890Z,5.20
2023-03-11T17:30:42.852Z,7.70
2023-03-11T17:33:10.490Z,7.00
2023-03-11T17:35:38.068Z,4.40
2023-03-11T17:38:05.688Z,4.80
2023-03-11T17:40:33.121Z,4.40
2023-03-11T17:43:00.739Z,4.00
2023-03-11T17:45:28.381Z,6.30
2023-03-11T17:47:55.926Z,5.10
2023-03-11T17:50:23.788Z,4.90
2023-03-11T17:52:51.200Z,6.10
2023-03-11T17:55:18.758Z,4.40
2023-03-11T17:57:46.411Z,5.00
2023-03-11T18:00:15.311Z,6.30
2023-03-11T18:02:43.116Z,6.80
2023-03-11T18:05:10.914Z,6.20
2023-03-11T18:07:41.447Z,7.60
2023-03-11T18:10:10.930Z,7.80
2023-03-11T18:12:39.184Z,5.80
2023-03-11T18:15:12.040Z,6.10
2023-03-11T18:17:39.749Z,5.10
2023-03-11T18:20:08.131Z,6.10
2023-03-11T18:22:35.670Z,4.30
2023-03-11T18:25:03.087Z,5.10
2023-03-11T18:27:30.439Z,5.90
2023-03-11T18:29:58.770Z,5.50
2023-03-11T18:32:26.176Z,4.80
2023-03-11T18:34:53.767Z,5.20
2023-03-11T18:37:21.154Z,5.10
2023-03-11T18:39:48.852Z,7.90
2023-03-11T18:42:16.291Z,6.50
2023-03-11T18:44:43.939Z,6.00
2023-03-11T18:47:11.351Z,6.40
2023-03-11T18:49:39.113Z,6.80
2023-03-11T18:52:06.737Z,6.70
2023-03-11T18:54:34.149Z,5.40
2023-03-11T18:57:01.651Z,6.00
2023-03-11T18:59:29.099Z,5.70
2023-03-11T19:01:56.513Z,5.10
2023-03-11T19:04:24.742Z,5.30
2023-03-11T19:06:52.223Z,7.70
2023-03-11T19:09:19.850Z,7.40
2023-03-11T19:11:47.265Z,6.70
2023-03-11T19:14:14.760Z,5.90
2023-03-11T19:16:42.404Z,8.60
2023-03-11T19:19:11.974Z,5.80
2023-03-11T19:21:39.658Z,6.80
2023-03-11T19:24:07.643Z,7.20
2023-03-11T19:26:45.723Z,7.20
2023-03-11T19:29:14.894Z,6.40
2023-03-11T19:31:43.846Z,6.30
2023-03-11T19:34:11.658Z,6.40
2023-03-11T19:36:39.539Z,5.00
2023-03-11T19:39:07.302Z,7.00
2023-03-11T19:41:35.021Z,6.80
2023-03-11T19:44:04.284Z,5.30
2023-03-11T19:46:34.810Z,6.30
2023-03-11T19:49:03.635Z,9.20
2023-03-11T19:51:46.388Z,8.10
2023-03-11T19:54:16.618Z,6.40
2023-03-11T19:56:44.202Z,6.90
2023-03-11T19:59:11.894Z,7.30
2023-03-11T20:01:39.235Z,7.50
2023-03-11T20:04:06.661Z,6.10
2023-03-11T20:06:34.443Z,6.10
2023-03-11T20:09:02.229Z,7.10
2023-03-11T20:11:29.659Z,6.40
2023-03-11T20:13:57.703Z,8.10
2023-03-11T20:16:25.339Z,7.80
2023-03-11T20:18:53.125Z,8.30
2023-03-11T20:21:20.575Z,8.50
2023-03-11T20:23:49.154Z,8.00
2023-03-11T20:26:19.172Z,7.20
2023-03-11T20:28:46.605Z,7.60
2023-03-11T20:31:19.951Z,6.20
2023-03-11T20:33:49.556Z,10.20
2023-03-11T20:36:23.760Z,7.20
2023-03-11T20:38:54.728Z,8.60
2023-03-11T20:41:24.637Z,8.80
2023-03-11T20:43:57.230Z,10.20
2023-03-11T20:46:24.860Z,7.90
2023-03-11T20:48:52.526Z,10.00
2023-03-11T20:51:20.979Z,8.20
2023-03-11T20:53:49.187Z,9.70
2023-03-11T20:56:20.776Z,8.30
2023-03-11T20:58:51.134Z,7.50
2023-03-11T21:01:36.955Z,13.20
2023-03-11T21:04:05.151Z,8.90
2023-03-11T21:06:39.257Z,8.50
2023-03-11T21:09:11.873Z,8.50
2023-03-11T21:11:39.462Z,9.30
2023-03-11T21:14:08.386Z,6.80
2023-03-11T21:16:37.404Z,10.40
2023-03-11T21:19:08.307Z,8.00
2023-03-11T21:21:36.299Z,8.40
2023-03-11T21:24:04.445Z,9.70
2023-03-11T21:26:32.348Z,9.80
2023-03-11T21:28:59.754Z,11.00
2023-03-11T21:31:29.297Z,11.10
2023-03-11T21:33:59.692Z,8.70
2023-03-11T21:36:29.488Z,12.80
2023-03-11T21:38:56.978Z,9.90
2023-03-11T21:41:27.433Z,14.10
2023-03-11T21:43:57.307Z,13.70
2023-03-11T21:46:31.335Z,10.70
2023-03-11T21:49:00.030Z,12.40
2023-03-11T21:51:31.757Z,11.50
2023-03-11T21:53:59.534Z,11.20
2023-03-11T21:56:30.123Z,9.80
2023-03-11T21:58:58.462Z,10.90
2023-03-11T22:01:26.231Z,10.10
2023-03-11T22:03:53.729Z,13.20
2023-03-11T22:06:21.648Z,13.50
2023-03-11T22:08:49.624Z,11.10
2023-03-11T22:11:19.398Z,10.70
2023-03-11T22:13:54.113Z,11.80
2023-03-11T22:16:23.480Z,12.90
2023-03-11T22:18:52.150Z,13.70
2023-03-11T22:21:23.544Z,11.30
2023-03-11T22:26:18.340Z,11.40
2023-03-11T22:28:45.737Z,11.60
2023-03-11T22:31:15.425Z,10.70
2023-03-11T22:33:42.847Z,11.30
2023-03-11T22:36:10.376Z,13.10
2023-03-11T22:38:40.644Z,12.60
2023-03-11T22:43:37.957Z,13.10
2023-03-11T22:46:07.183Z,12.10
2023-03-11T22:48:34.994Z,12.80
2023-03-11T22:51:03.134Z,13.30
2023-03-11T22:53:30.715Z,13.00
2023-03-11T22:55:58.072Z,12.70
2023-03-11T22:58:25.480Z,11.30
2023-03-11T23:00:52.861Z,10.90
2023-03-11T23:03:20.299Z,12.30
2023-03-11T23:05:47.702Z,11.50
2023-03-11T23:08:16.648Z,11.90
2023-03-11T23:10:47.063Z,11.30
2023-03-11T23:13:14.995Z,11.90
2023-03-11T23:15:44.624Z,12.20
2023-03-11T23:18:13.394Z,11.40
2023-03-11T23:20:42.702Z,12.80
2023-03-11T23:23:10.638Z,12.90
2023-03-11T23:25:39.781Z,11.70
2023-03-11T23:28:07.724Z,13.40
2023-03-11T23:30:35.544Z,12.80
2023-03-11T23:33:03.636Z,11.30
2023-03-11T23:35:32.577Z,13.00
2023-03-11T23:38:00.708Z,13.40
2023-03-11T23:40:28.161Z,11.70
2023-03-11T23:42:55.616Z,12.70
2023-03-11T23:45:23.048Z,13.70
2023-03-11T23:47:50.530Z,12.70
2023-03-11T23:50:18.052Z,15.40
2023-03-11T23:52:45.450Z,15.20
2023-03-11T23:55:13.208Z,13.80
2023-03-11T23:57:40.780Z,12.60
